Time;durP1;ratioP1;P1;durP2;ratioP2;P2;SDS_P1;SDS_P2;PMS_P1;PMS_P2;Temp;Humidity;BMP_temperature;BMP_pressure;BME280_temperature;BME280_humidity;BME280_pressure;Samples;Min_cycle;Max_cycle;Signal;HPM_P1;HPM_P2
2022/11/16 00:01:46;;;;;;;16.58;10.13;;;;;;;;;;5013577;28;20274;-67
2022/11/16 00:04:11;;;;;;;12.15;9.55;;;;;;;;;;5015207;28;20256;-67
2022/11/16 00:06:37;;;;;;;12.80;9.35;;;;;;;;;;5015337;28;20220;-66
2022/11/16 00:11:50;;;;;;;13.30;9.25;;;;;;;;;;5014977;28;20581;-67
2022/11/16 00:14:16;;;;;;;13.23;9.65;;;;;;;;;;5014497;28;20211;-66
2022/11/16 00:16:41;;;;;;;13.75;9.60;;;;;;;;;;5014291;28;20220;-66
2022/11/16 00:19:07;;;;;;;20.25;10.77;;;;;;;;;;5014871;28;20224;-66
2022/11/16 00:21:32;;;;;;;13.98;9.82;;;;;;;;;;5014235;28;20610;-67
2022/11/16 00:23:58;;;;;;;15.95;10.90;;;;;;;;;;5015206;28;20766;-67
2022/11/16 00:26:23;;;;;;;12.70;9.82;;;;;;;;;;5014828;28;20213;-67
2022/11/16 00:28:48;;;;;;;14.63;9.55;;;;;;;;;;5013875;28;20257;-67
2022/11/16 00:31:13;;;;;;;14.90;10.65;;;;;;;;;;5014395;28;20216;-66
2022/11/16 00:33:39;;;;;;;17.02;11.30;;;;;;;;;;5014811;28;20213;-67
2022/11/16 00:36:05;;;;;;;11.32;8.25;;;;;;;;;;5013707;28;20216;-67
2022/11/16 00:38:30;;;;;;;16.20;11.45;;;;;;;;;;5014537;28;20225;-67
2022/11/16 00:40:55;;;;;;;11.98;9.18;;;;;;;;;;5014789;28;20224;-67
2022/11/16 00:43:20;;;;;;;12.85;9.60;;;;;;;;;;5013051;28;20270;-68
2022/11/16 00:45:46;;;;;;;16.25;10.38;;;;;;;;;;4996961;28;20611;-68
2022/11/16 00:48:11;;;;;;;15.73;10.30;;;;;;;;;;4996498;28;20223;-67
2022/11/16 00:50:36;;;;;;;15.80;10.93;;;;;;;;;;5013894;28;20316;-68
2022/11/16 00:53:02;;;;;;;19.27;11.25;;;;;;;;;;5014087;28;20212;-67
2022/11/16 00:55:27;;;;;;;17.60;10.98;;;;;;;;;;5014578;28;20258;-68
2022/11/16 00:57:52;;;;;;;16.08;11.25;;;;;;;;;;5013431;28;20603;-68
2022/11/16 01:00:18;;;;;;;15.77;10.75;;;;;;;;;;5013685;28;20220;-68
2022/11/16 01:02:43;;;;;;;14.23;9.40;;;;;;;;;;5022507;28;20227;-68
2022/11/16 01:05:08;;;;;;;15.75;10.23;;;;;;;;;;5032686;28;20216;-68
2022/11/16 01:07:34;;;;;;;15.73;10.63;;;;;;;;;;5033964;28;20239;-68
2022/11/16 01:10:00;;;;;;;15.45;11.75;;;;;;;;;;5015635;28;20215;-68
2022/11/16 01:12:25;;;;;;;17.00;11.18;;;;;;;;;;5032379;28;20215;-67
2022/11/16 01:14:50;;;;;;;15.00;10.90;;;;;;;;;;5033287;28;20222;-68
2022/11/16 01:17:15;;;;;;;12.10;9.13;;;;;;;;;;5033128;28;20695;-67
2022/11/16 01:19:41;;;;;;;13.32;9.88;;;;;;;;;;5032914;28;20220;-67
2022/11/16 01:22:06;;;;;;;11.48;9.45;;;;;;;;;;5033062;28;20782;-67
2022/11/16 01:24:31;;;;;;;14.95;10.32;;;;;;;;;;5033698;28;20227;-67
2022/11/16 01:26:57;;;;;;;10.93;8.32;;;;;;;;;;5032935;28;20212;-68
2022/11/16 01:29:23;;;;;;;10.63;8.25;;;;;;;;;;5032708;28;20291;-68
2022/11/16 01:31:49;;;;;;;11.93;9.15;;;;;;;;;;5032786;28;20235;-68
2022/11/16 01:34:14;;;;;;;13.13;8.95;;;;;;;;;;5033229;28;20243;-68
2022/11/16 01:36:39;;;;;;;12.27;8.60;;;;;;;;;;5033398;28;20208;-68
2022/11/16 01:39:05;;;;;;;14.60;10.27;;;;;;;;;;5031993;28;20258;-67
2022/11/16 01:41:30;;;;;;;14.55;11.13;;;;;;;;;;5033325;28;20265;-68
2022/11/16 01:43:56;;;;;;;12.43;9.82;;;;;;;;;;5033262;28;20216;-69
2022/11/16 01:46:22;;;;;;;18.23;11.27;;;;;;;;;;5031695;28;20208;-69
2022/11/16 01:48:48;;;;;;;13.80;9.95;;;;;;;;;;5033136;28;20214;-68
2022/11/16 01:51:13;;;;;;;12.63;9.75;;;;;;;;;;5031544;28;20274;-67
2022/11/16 01:53:39;;;;;;;14.30;10.43;;;;;;;;;;5032362;28;20663;-69
2022/11/16 01:56:04;;;;;;;15.25;10.32;;;;;;;;;;5032547;28;20243;-69
2022/11/16 01:58:29;;;;;;;12.20;10.05;;;;;;;;;;5032681;28;20223;-68
2022/11/16 02:00:54;;;;;;;15.45;10.73;;;;;;;;;;5031969;28;20222;-68
2022/11/16 02:03:20;;;;;;;16.75;12.60;;;;;;;;;;5014438;28;20319;-68
2022/11/16 02:05:51;;;;;;;18.65;11.43;;;;;;;;;;5033062;28;20261;-68
2022/11/16 02:11:07;;;;;;;15.75;10.60;;;;;;;;;;5032528;28;20273;-68
2022/11/16 02:13:34;;;;;;;13.85;10.55;;;;;;;;;;5032449;28;20226;-68
2022/11/16 02:16:04;;;;;;;15.55;10.85;;;;;;;;;;5014199;28;20208;-68
2022/11/16 02:18:34;;;;;;;14.75;10.98;;;;;;;;;;5050883;28;20677;-68
2022/11/16 02:20:59;;;;;;;14.55;10.98;;;;;;;;;;5051701;28;20215;-68
2022/11/16 02:23:27;;;;;;;12.88;10.02;;;;;;;;;;5052044;28;20215;-68
2022/11/16 02:26:09;;;;;;;15.23;11.65;;;;;;;;;;5052420;28;20297;-68
2022/11/16 02:28:44;;;;;;;15.48;10.75;;;;;;;;;;5051474;28;20310;-67
2022/11/16 02:31:11;;;;;;;14.18;10.90;;;;;;;;;;5051681;28;20213;-67
2022/11/16 02:33:37;;;;;;;15.05;11.35;;;;;;;;;;5052296;28;20206;-67
2022/11/16 02:36:02;;;;;;;12.82;10.20;;;;;;;;;;5033504;28;20692;-67
2022/11/16 02:38:30;;;;;;;13.05;10.07;;;;;;;;;;5034379;28;20309;-67
2022/11/16 02:41:00;;;;;;;11.38;8.80;;;;;;;;;;5016540;28;20207;-67
2022/11/16 02:43:31;;;;;;;13.98;8.88;;;;;;;;;;5013579;28;20234;-67
2022/11/16 02:45:57;;;;;;;12.18;9.88;;;;;;;;;;5032052;28;20211;-67
2022/11/16 02:48:25;;;;;;;12.35;9.45;;;;;;;;;;5002790;28;20212;-67
2022/11/16 02:50:51;;;;;;;12.57;9.18;;;;;;;;;;5010716;28;20219;-67
2022/11/16 02:53:17;;;;;;;10.15;7.78;;;;;;;;;;5010881;28;20243;-67
2022/11/16 02:55:42;;;;;;;14.77;9.75;;;;;;;;;;5012662;28;20579;-67
2022/11/16 02:58:09;;;;;;;12.13;8.70;;;;;;;;;;5011260;28;20229;-67
2022/11/16 03:00:46;;;;;;;11.57;8.40;;;;;;;;;;5011266;28;20278;-67
2022/11/16 03:03:12;;;;;;;11.85;8.60;;;;;;;;;;5010815;28;20232;-67
2022/11/16 03:05:38;;;;;;;11.43;9.07;;;;;;;;;;5012346;28;20219;-67
2022/11/16 03:08:12;;;;;;;10.75;8.60;;;;;;;;;;5010845;28;20691;-66
2022/11/16 03:13:22;;;;;;;15.98;11.02;;;;;;;;;;5011726;28;20270;-67
2022/11/16 03:15:47;;;;;;;14.57;10.93;;;;;;;;;;5031127;28;20211;-67
2022/11/16 03:18:13;;;;;;;14.20;10.65;;;;;;;;;;5012957;28;20310;-67
2022/11/16 03:20:38;;;;;;;11.85;9.68;;;;;;;;;;5014423;28;20212;-67
2022/11/16 03:23:04;;;;;;;13.55;10.15;;;;;;;;;;5013940;28;20212;-67
2022/11/16 03:25:31;;;;;;;14.23;10.70;;;;;;;;;;5031048;28;20659;-67
2022/11/16 03:27:59;;;;;;;19.13;12.07;;;;;;;;;;5000496;28;20290;-68
2022/11/16 03:30:25;;;;;;;15.38;12.05;;;;;;;;;;5021234;28;20846;-68
2022/11/16 03:32:59;;;;;;;12.10;10.63;;;;;;;;;;4998172;28;20224;-68
2022/11/16 03:35:34;;;;;;;11.68;9.65;;;;;;;;;;5002086;28;20227;-68
2022/11/16 03:37:59;;;;;;;14.90;11.27;;;;;;;;;;4993551;28;20220;-69
2022/11/16 03:40:26;;;;;;;13.80;10.13;;;;;;;;;;5007020;28;20216;-69
2022/11/16 03:42:51;;;;;;;13.52;10.75;;;;;;;;;;5021712;28;20217;-69
2022/11/16 03:45:16;;;;;;;13.80;10.40;;;;;;;;;;5023491;28;20235;-69
2022/11/16 03:47:41;;;;;;;12.77;10.38;;;;;;;;;;5006461;28;20227;-69
2022/11/16 03:50:07;;;;;;;13.73;11.68;;;;;;;;;;5025070;28;20669;-68
2022/11/16 03:52:32;;;;;;;16.23;11.48;;;;;;;;;;5024498;28;20200;-69
2022/11/16 03:54:58;;;;;;;15.00;11.32;;;;;;;;;;5007632;28;20223;-69
2022/11/16 03:57:23;;;;;;;15.88;11.25;;;;;;;;;;5023317;28;20220;-68
2022/11/16 03:59:48;;;;;;;14.13;10.95;;;;;;;;;;5016960;28;20701;-69
2022/11/16 04:02:13;;;;;;;18.50;12.13;;;;;;;;;;5016376;28;20239;-68
2022/11/16 04:29:14;;;;;;;13.73;11.25;;;;;;;;;;5023543;28;20579;-68
2022/11/16 04:39:52;;;;;;;14.82;11.27;;;;;;;;;;5006283;28;20230;-69
2022/11/16 04:42:21;;;;;;;13.27;10.45;;;;;;;;;;5022106;28;20212;-68
2022/11/16 04:47:30;;;;;;;11.98;9.45;;;;;;;;;;5015545;28;21203;-68
2022/11/16 04:49:55;;;;;;;12.73;10.10;;;;;;;;;;5017113;28;20743;-68
2022/11/16 04:52:20;;;;;;;10.82;9.15;;;;;;;;;;5023351;28;20226;-68
2022/11/16 04:54:45;;;;;;;12.82;10.20;;;;;;;;;;5024556;28;20219;-69
2022/11/16 04:57:11;;;;;;;11.00;9.35;;;;;;;;;;5022497;28;20208;-68
2022/11/16 04:59:36;;;;;;;12.18;9.50;;;;;;;;;;5023973;28;20220;-68
2022/11/16 05:02:07;;;;;;;12.20;9.88;;;;;;;;;;5023569;28;20285;-66
2022/11/16 05:04:32;;;;;;;10.32;9.23;;;;;;;;;;5023172;28;20216;-68
2022/11/16 05:06:58;;;;;;;10.27;8.50;;;;;;;;;;5017372;28;20208;-67
2022/11/16 05:09:23;;;;;;;10.32;8.82;;;;;;;;;;5015974;28;20852;-68
2022/11/16 05:11:48;;;;;;;11.25;8.45;;;;;;;;;;5015094;28;20531;-66
2022/11/16 05:14:13;;;;;;;12.50;9.50;;;;;;;;;;5022354;28;20556;-66
2022/11/16 05:16:39;;;;;;;9.98;8.75;;;;;;;;;;5023429;28;20224;-66
2022/11/16 05:21:47;;;;;;;9.88;8.88;;;;;;;;;;5023314;28;20218;-66
2022/11/16 05:26:57;;;;;;;11.27;8.63;;;;;;;;;;5023397;28;20234;-66
2022/11/16 05:29:22;;;;;;;8.90;6.20;;;;;;;;;;5017857;28;20965;-66
2022/11/16 05:31:47;;;;;;;8.73;5.75;;;;;;;;;;5014851;28;20219;-66
2022/11/16 05:34:12;;;;;;;8.75;4.95;;;;;;;;;;5015194;28;20246;-66
2022/11/16 05:36:38;;;;;;;6.60;4.10;;;;;;;;;;5020315;28;20251;-66
2022/11/16 05:39:03;;;;;;;8.30;4.03;;;;;;;;;;5022174;28;20234;-66
2022/11/16 05:41:29;;;;;;;5.95;3.80;;;;;;;;;;5023161;28;20216;-66
2022/11/16 05:43:54;;;;;;;6.47;3.10;;;;;;;;;;5023424;28;20710;-66
2022/11/16 05:46:20;;;;;;;8.10;3.13;;;;;;;;;;5021388;28;20215;-66
2022/11/16 05:48:45;;;;;;;6.38;2.72;;;;;;;;;;5023395;28;20223;-65
2022/11/16 05:51:10;;;;;;;5.82;2.72;;;;;;;;;;5019107;28;20211;-65
2022/11/16 05:53:36;;;;;;;5.10;2.70;;;;;;;;;;5011827;28;20219;-65
2022/11/16 05:56:01;;;;;;;4.13;2.28;;;;;;;;;;5014071;28;20568;-66
2022/11/16 05:58:26;;;;;;;8.65;2.75;;;;;;;;;;5017937;28;20306;-67
2022/11/16 06:00:51;;;;;;;5.75;2.85;;;;;;;;;;5022263;28;20319;-67
2022/11/16 06:03:17;;;;;;;5.88;2.80;;;;;;;;;;5022008;28;20236;-67
2022/11/16 06:05:42;;;;;;;4.95;2.50;;;;;;;;;;5022854;28;20216;-67
2022/11/16 06:08:07;;;;;;;11.43;3.40;;;;;;;;;;5021299;28;20223;-64
2022/11/16 06:10:32;;;;;;;7.72;4.13;;;;;;;;;;5023045;28;20242;-65
2022/11/16 06:12:58;;;;;;;7.13;3.60;;;;;;;;;;5022054;28;20586;-65
2022/11/16 06:15:23;;;;;;;6.45;3.83;;;;;;;;;;5013620;28;20569;-65
2022/11/16 06:17:48;;;;;;;5.50;3.33;;;;;;;;;;4996585;28;20318;-65
2022/11/16 06:20:14;;;;;;;8.13;6.18;;;;;;;;;;5014513;28;20806;-65
2022/11/16 06:22:39;;;;;;;9.10;6.25;;;;;;;;;;5021993;28;20298;-65
2022/11/16 06:25:06;;;;;;;9.68;6.40;;;;;;;;;;5022270;28;20702;-64
2022/11/16 06:27:31;;;;;;;10.13;6.68;;;;;;;;;;5022196;28;20643;-65
2022/11/16 06:29:56;;;;;;;12.10;6.63;;;;;;;;;;5022280;28;20760;-65
2022/11/16 06:32:21;;;;;;;9.68;6.85;;;;;;;;;;5022159;28;20222;-65
2022/11/16 06:34:47;;;;;;;10.27;6.85;;;;;;;;;;5021886;28;20327;-65
2022/11/16 06:37:12;;;;;;;9.18;6.45;;;;;;;;;;5015965;28;20208;-64
2022/11/16 06:39:37;;;;;;;9.88;6.32;;;;;;;;;;5012886;28;20250;-65
2022/11/16 06:42:03;;;;;;;11.55;6.70;;;;;;;;;;5013610;28;20290;-64
2022/11/16 06:44:28;;;;;;;9.52;6.05;;;;;;;;;;5020006;28;20215;-65
2022/11/16 06:46:53;;;;;;;9.15;6.00;;;;;;;;;;5022412;28;20247;-65
2022/11/16 06:49:18;;;;;;;9.18;5.25;;;;;;;;;;5020922;28;20551;-65
2022/11/16 06:51:44;;;;;;;11.60;5.70;;;;;;;;;;5022175;28;20278;-65
2022/11/16 06:54:09;;;;;;;10.50;5.10;;;;;;;;;;5021276;28;20741;-65
2022/11/16 06:56:34;;;;;;;9.98;4.93;;;;;;;;;;5021755;28;20219;-65
2022/11/16 06:59:00;;;;;;;7.22;4.20;;;;;;;;;;5018967;28;20220;-65
2022/11/16 07:01:25;;;;;;;6.43;4.05;;;;;;;;;;5014084;28;21073;-65
2022/11/16 07:03:50;;;;;;;8.43;3.58;;;;;;;;;;5013264;28;20236;-65
2022/11/16 07:06:16;;;;;;;7.57;3.45;;;;;;;;;;5016818;28;20216;-64
2022/11/16 07:08:41;;;;;;;7.25;3.92;;;;;;;;;;5025786;28;20268;-65
2022/11/16 07:11:07;;;;;;;7.80;3.95;;;;;;;;;;5028305;28;20302;-64
2022/11/16 07:13:32;;;;;;;8.55;3.50;;;;;;;;;;5035324;28;20238;-65
2022/11/16 07:16:04;;;;;;;7.32;3.38;;;;;;;;;;5034694;28;20219;-64
2022/11/16 07:18:31;;;;;;;5.60;3.13;;;;;;;;;;5033700;28;20219;-65
2022/11/16 07:20:56;;;;;;;8.68;3.90;;;;;;;;;;5035170;28;20421;-66
2022/11/16 07:23:21;;;;;;;8.23;3.25;;;;;;;;;;5041160;28;20203;-65
2022/11/16 07:25:47;;;;;;;5.85;2.80;;;;;;;;;;5056178;28;20237;-65
2022/11/16 07:28:12;;;;;;;6.95;2.25;;;;;;;;;;5055481;28;20219;-64
2022/11/16 07:30:37;;;;;;;7.45;2.28;;;;;;;;;;5054949;28;20211;-64
2022/11/16 07:33:03;;;;;;;6.47;2.13;;;;;;;;;;5055324;28;20644;-66
2022/11/16 07:35:28;;;;;;;7.90;2.70;;;;;;;;;;5047854;28;20271;-64
2022/11/16 07:37:53;;;;;;;6.95;2.00;;;;;;;;;;5014554;28;20652;-64
2022/11/16 07:40:19;;;;;;;6.77;2.30;;;;;;;;;;5033190;28;20430;-63
2022/11/16 07:42:44;;;;;;;7.80;2.40;;;;;;;;;;5034908;28;20299;-63
2022/11/16 07:45:10;;;;;;;8.57;2.70;;;;;;;;;;5033574;28;20200;-63
2022/11/16 07:47:36;;;;;;;8.27;2.38;;;;;;;;;;5034775;28;20694;-62
2022/11/16 07:50:02;;;;;;;8.25;2.10;;;;;;;;;;5034049;28;20207;-63
2022/11/16 07:52:27;;;;;;;8.15;2.22;;;;;;;;;;5033613;28;20687;-63
2022/11/16 07:54:53;;;;;;;6.88;1.92;;;;;;;;;;5034635;28;20219;-63
2022/11/16 07:57:18;;;;;;;5.78;2.45;;;;;;;;;;5034142;28;20641;-62
2022/11/16 07:59:43;;;;;;;3.97;2.00;;;;;;;;;;5034095;28;20218;-63
2022/11/16 08:02:09;;;;;;;8.60;2.72;;;;;;;;;;5034002;28;20235;-63
2022/11/16 08:04:34;;;;;;;7.63;2.30;;;;;;;;;;5031950;28;20204;-63
2022/11/16 08:06:59;;;;;;;8.20;2.30;;;;;;;;;;5033042;28;20236;-64
2022/11/16 08:09:25;;;;;;;6.85;2.35;;;;;;;;;;5034021;28;20214;-64
2022/11/16 08:11:50;;;;;;;8.63;2.70;;;;;;;;;;5034495;28;20274;-64
2022/11/16 08:14:17;;;;;;;5.80;2.50;;;;;;;;;;5030899;28;20675;-64
2022/11/16 08:16:42;;;;;;;6.95;2.83;;;;;;;;;;5032485;28;20242;-64
2022/11/16 08:19:09;;;;;;;8.90;2.78;;;;;;;;;;5022940;28;20302;-64
2022/11/16 08:21:34;;;;;;;7.05;2.80;;;;;;;;;;5029417;28;20223;-64
2022/11/16 08:23:59;;;;;;;7.22;2.50;;;;;;;;;;5041678;28;20215;-64
2022/11/16 08:26:25;;;;;;;11.48;3.17;;;;;;;;;;5031703;28;20289;-64
2022/11/16 08:28:52;;;;;;;13.25;3.08;;;;;;;;;;5031698;28;20307;-64
2022/11/16 08:31:19;;;;;;;6.93;2.80;;;;;;;;;;5043941;28;20241;-64
2022/11/16 08:33:45;;;;;;;13.48;3.20;;;;;;;;;;5051547;28;20690;-64
2022/11/16 08:36:11;;;;;;;10.00;3.05;;;;;;;;;;5044981;28;20223;-64
2022/11/16 08:38:39;;;;;;;6.88;2.85;;;;;;;;;;5033191;28;20235;-64
2022/11/16 08:41:04;;;;;;;5.32;2.63;;;;;;;;;;5033043;28;20691;-64
2022/11/16 08:43:30;;;;;;;8.75;2.97;;;;;;;;;;5034272;28;20257;-64
2022/11/16 08:45:57;;;;;;;7.70;3.33;;;;;;;;;;5034261;28;20196;-63
2022/11/16 08:48:22;;;;;;;8.30;3.10;;;;;;;;;;5032991;28;20212;-63
2022/11/16 08:50:47;;;;;;;7.72;2.88;;;;;;;;;;5034133;28;20261;-63
2022/11/16 08:53:14;;;;;;;7.53;2.80;;;;;;;;;;5033079;28;20212;-64
2022/11/16 08:55:39;;;;;;;8.88;3.25;;;;;;;;;;5045348;28;20294;-63
2022/11/16 08:58:05;;;;;;;9.32;3.25;;;;;;;;;;5053508;28;20317;-64
2022/11/16 09:00:30;;;;;;;10.13;3.13;;;;;;;;;;5032039;28;20292;-63
2022/11/16 09:02:55;;;;;;;6.63;2.83;;;;;;;;;;5032970;28;20228;-63
2022/11/16 09:05:20;;;;;;;7.50;2.47;;;;;;;;;;5033410;28;20296;-64
2022/11/16 09:07:46;;;;;;;8.18;2.80;;;;;;;;;;5033462;28;20208;-63
2022/11/16 09:10:11;;;;;;;9.82;2.85;;;;;;;;;;5032393;28;20299;-64
2022/11/16 09:12:36;;;;;;;9.55;2.55;;;;;;;;;;5033808;28;20214;-64
2022/11/16 09:15:02;;;;;;;9.63;2.55;;;;;;;;;;5029479;28;20243;-64
2022/11/16 09:17:28;;;;;;;8.98;2.55;;;;;;;;;;5013004;28;20765;-64
2022/11/16 09:19:53;;;;;;;11.27;2.60;;;;;;;;;;5013891;28;20212;-63
2022/11/16 09:22:18;;;;;;;8.15;3.00;;;;;;;;;;5013038;28;20224;-63
2022/11/16 09:24:43;;;;;;;8.45;2.40;;;;;;;;;;5012544;28;20208;-63
2022/11/16 09:27:09;;;;;;;9.40;2.30;;;;;;;;;;5013475;28;20216;-63
2022/11/16 09:29:34;;;;;;;9.45;2.53;;;;;;;;;;5011596;28;20688;-63
2022/11/16 09:32:01;;;;;;;10.38;2.50;;;;;;;;;;5011081;28;20295;-63
2022/11/16 09:34:26;;;;;;;8.80;2.30;;;;;;;;;;5030936;28;20204;-63
2022/11/16 09:36:51;;;;;;;6.97;2.33;;;;;;;;;;5031033;28;20564;-63
2022/11/16 09:39:17;;;;;;;8.88;2.20;;;;;;;;;;5027487;28;20311;-64
2022/11/16 09:42:01;;;;;;;9.20;2.13;;;;;;;;;;5030926;28;20226;-63
2022/11/16 09:44:26;;;;;;;10.52;2.40;;;;;;;;;;5030235;28;20211;-64
2022/11/16 09:46:52;;;;;;;8.35;2.67;;;;;;;;;;5021407;28;20226;-63
2022/11/16 09:49:18;;;;;;;9.95;2.47;;;;;;;;;;5030433;28;20349;-64
2022/11/16 09:51:45;;;;;;;10.40;2.30;;;;;;;;;;5030016;28;20305;-63
2022/11/16 09:54:11;;;;;;;11.98;2.47;;;;;;;;;;5012684;28;20214;-64
2022/11/16 09:56:37;;;;;;;14.70;2.17;;;;;;;;;;5030703;28;20208;-63
2022/11/16 09:59:10;;;;;;;8.95;2.22;;;;;;;;;;5012076;28;20224;-66
2022/11/16 10:01:43;;;;;;;9.00;2.10;;;;;;;;;;5030542;28;20300;-65
2022/11/16 10:04:19;;;;;;;12.68;2.35;;;;;;;;;;5030257;28;20235;-65
2022/11/16 10:06:46;;;;;;;12.40;2.40;;;;;;;;;;5011865;28;20578;-65
2022/11/16 10:09:11;;;;;;;6.22;2.28;;;;;;;;;;5012445;28;20219;-66
2022/11/16 10:11:54;;;;;;;9.45;2.22;;;;;;;;;;5028677;28;21196;-65
2022/11/16 10:14:37;;;;;;;10.80;1.90;;;;;;;;;;5027898;28;20227;-66
2022/11/16 10:17:07;;;;;;;9.05;2.40;;;;;;;;;;5009414;28;20212;-65
2022/11/16 10:19:39;;;;;;;7.90;1.85;;;;;;;;;;5027288;28;20220;-65
2022/11/16 10:22:26;;;;;;;12.52;2.70;;;;;;;;;;5028948;28;20210;-66
2022/11/16 10:24:55;;;;;;;8.20;2.40;;;;;;;;;;5030129;28;20242;-65
2022/11/16 10:27:33;;;;;;;11.52;2.13;;;;;;;;;;5027175;28;20255;-65
2022/11/16 10:30:12;;;;;;;11.73;2.17;;;;;;;;;;5028510;28;20219;-65
2022/11/16 10:32:53;;;;;;;10.55;1.88;;;;;;;;;;5030824;28;20207;-65
2022/11/16 10:35:24;;;;;;;10.38;2.00;;;;;;;;;;5031072;28;20216;-65
2022/11/16 10:37:50;;;;;;;13.27;2.67;;;;;;;;;;5023327;28;20599;-65
2022/11/16 10:40:18;;;;;;;11.25;2.28;;;;;;;;;;5030215;28;20219;-66
2022/11/16 10:42:44;;;;;;;8.38;1.90;;;;;;;;;;5009153;28;20208;-64
2022/11/16 10:45:10;;;;;;;10.80;2.20;;;;;;;;;;5028880;28;20216;-65
2022/11/16 10:47:37;;;;;;;10.80;2.58;;;;;;;;;;5028973;28;20768;-65
2022/11/16 10:50:19;;;;;;;8.70;1.90;;;;;;;;;;5027827;28;20265;-62
2022/11/16 10:52:44;;;;;;;10.15;2.20;;;;;;;;;;5029184;28;20204;-63
2022/11/16 10:55:13;;;;;;;9.93;2.17;;;;;;;;;;5048938;28;20285;-64
2022/11/16 10:57:55;;;;;;;8.10;2.20;;;;;;;;;;5048436;28;20222;-63
2022/11/16 11:00:34;;;;;;;8.93;2.30;;;;;;;;;;5049161;28;20238;-63
2022/11/16 11:02:59;;;;;;;7.10;2.08;;;;;;;;;;5048922;28;20230;-63
2022/11/16 11:05:25;;;;;;;6.40;1.90;;;;;;;;;;5049389;28;20214;-64
2022/11/16 11:07:58;;;;;;;5.35;1.75;;;;;;;;;;5048410;28;20263;-63
2022/11/16 11:10:30;;;;;;;9.70;2.10;;;;;;;;;;5020671;28;20216;-63
2022/11/16 11:13:00;;;;;;;10.63;3.42;;;;;;;;;;5041161;28;20211;-63
2022/11/16 11:15:26;;;;;;;7.88;2.00;;;;;;;;;;5036073;28;20219;-63
2022/11/16 11:18:10;;;;;;;7.70;1.70;;;;;;;;;;5028924;28;20886;-63
2022/11/16 11:20:35;;;;;;;7.80;1.95;;;;;;;;;;5049296;28;20211;-63
2022/11/16 11:23:01;;;;;;;9.15;2.10;;;;;;;;;;5042852;28;20217;-63
2022/11/16 11:25:27;;;;;;;9.52;2.38;;;;;;;;;;4992568;28;20303;-66
2022/11/16 11:28:03;;;;;;;7.90;2.20;;;;;;;;;;4992279;28;20299;-65
2022/11/16 11:30:29;;;;;;;7.05;2.05;;;;;;;;;;5026793;28;20207;-62
2022/11/16 11:32:54;;;;;;;9.98;2.55;;;;;;;;;;5019489;28;20299;-62
2022/11/16 11:35:23;;;;;;;9.38;2.53;;;;;;;;;;5025102;28;20240;-63
2022/11/16 11:37:49;;;;;;;9.13;2.35;;;;;;;;;;5026805;28;20285;-63
2022/11/16 11:40:17;;;;;;;11.88;2.47;;;;;;;;;;5022867;28;20212;-62
2022/11/16 11:42:50;;;;;;;11.10;2.13;;;;;;;;;;5009330;28;20625;-62
2022/11/16 11:45:15;;;;;;;10.13;2.75;;;;;;;;;;5011098;28;20217;-62
2022/11/16 11:47:46;;;;;;;8.75;2.13;;;;;;;;;;5015539;28;20690;-63
2022/11/16 11:50:15;;;;;;;7.30;1.90;;;;;;;;;;5027215;28;20828;-63
2022/11/16 11:52:43;;;;;;;6.60;1.75;;;;;;;;;;5028065;28;20663;-62
2022/11/16 11:55:12;;;;;;;10.25;2.00;;;;;;;;;;5031651;28;20299;-62
2022/11/16 11:57:38;;;;;;;8.18;1.70;;;;;;;;;;5031548;28;20687;-62
2022/11/16 12:00:04;;;;;;;10.55;2.35;;;;;;;;;;5030719;28;20744;-63
2022/11/16 12:02:38;;;;;;;7.50;2.05;;;;;;;;;;5029267;28;20225;-62
2022/11/16 12:05:15;;;;;;;8.43;1.80;;;;;;;;;;5031837;28;20215;-62
2022/11/16 12:07:58;;;;;;;8.05;1.73;;;;;;;;;;5031757;28;20215;-62
2022/11/16 12:10:36;;;;;;;6.43;1.63;;;;;;;;;;5032545;28;20303;-62
2022/11/16 12:13:05;;;;;;;6.40;1.98;;;;;;;;;;5029436;28;20655;-62
2022/11/16 12:15:35;;;;;;;8.25;1.70;;;;;;;;;;5033015;28;20215;-62
2022/11/16 12:18:05;;;;;;;6.88;1.60;;;;;;;;;;5032868;28;20694;-64
2022/11/16 12:20:36;;;;;;;8.98;2.03;;;;;;;;;;5032103;28;20257;-62
2022/11/16 12:23:18;;;;;;;7.90;2.15;;;;;;;;;;5030782;28;20266;-63
2022/11/16 12:25:56;;;;;;;7.82;1.98;;;;;;;;;;5032629;28;20711;-62
2022/11/16 12:28:21;;;;;;;6.93;1.80;;;;;;;;;;5030467;28;20212;-62
2022/11/16 12:30:50;;;;;;;7.82;1.73;;;;;;;;;;5032690;28;20220;-62
2022/11/16 12:33:17;;;;;;;5.53;1.73;;;;;;;;;;5031312;28;20254;-62
2022/11/16 12:35:49;;;;;;;8.57;1.80;;;;;;;;;;5032322;28;20229;-62
2022/11/16 12:38:15;;;;;;;7.68;2.22;;;;;;;;;;5031927;28;20274;-62
2022/11/16 12:40:44;;;;;;;12.65;1.80;;;;;;;;;;5031635;28;20215;-62
2022/11/16 12:43:17;;;;;;;6.88;1.70;;;;;;;;;;5031532;28;20283;-62
2022/11/16 12:45:51;;;;;;;5.30;1.70;;;;;;;;;;5032070;28;20303;-62
2022/11/16 12:48:19;;;;;;;9.18;1.70;;;;;;;;;;5030969;28;20211;-62
2022/11/16 12:50:45;;;;;;;7.22;1.58;;;;;;;;;;5032408;28;20214;-62
2022/11/16 12:53:29;;;;;;;8.88;1.50;;;;;;;;;;5031647;28;20277;-62
2022/11/16 12:55:57;;;;;;;6.18;1.40;;;;;;;;;;5031359;28;20223;-62
2022/11/16 12:58:27;;;;;;;8.70;1.77;;;;;;;;;;5031158;28;20227;-61
2022/11/16 13:01:01;;;;;;;4.75;1.10;;;;;;;;;;5030567;28;20207;-62
2022/11/16 13:03:28;;;;;;;8.32;1.30;;;;;;;;;;5031421;28;20227;-61
2022/11/16 13:05:56;;;;;;;7.15;1.83;;;;;;;;;;5030812;28;20270;-62
2022/11/16 13:08:30;;;;;;;6.88;1.40;;;;;;;;;;5029701;28;20299;-62
2022/11/16 13:10:59;;;;;;;6.38;1.40;;;;;;;;;;5014222;28;20578;-62
2022/11/16 13:13:28;;;;;;;7.03;1.50;;;;;;;;;;5031049;28;20212;-62
2022/11/16 13:15:53;;;;;;;8.68;1.67;;;;;;;;;;5030703;28;20222;-62
2022/11/16 13:18:19;;;;;;;7.57;1.80;;;;;;;;;;5029874;28;20607;-61
2022/11/16 13:20:51;;;;;;;8.68;1.95;;;;;;;;;;5030450;28;20266;-62
2022/11/16 13:23:17;;;;;;;9.80;1.40;;;;;;;;;;5029357;28;20663;-62
2022/11/16 13:25:44;;;;;;;7.35;1.20;;;;;;;;;;5033703;28;20265;-62
2022/11/16 13:28:13;;;;;;;8.02;1.42;;;;;;;;;;5031840;28;20216;-62
2022/11/16 13:30:49;;;;;;;7.07;1.58;;;;;;;;;;5032520;28;20216;-62
2022/11/16 13:33:21;;;;;;;6.28;1.30;;;;;;;;;;5031889;28;20215;-62
2022/11/16 13:35:46;;;;;;;12.13;1.60;;;;;;;;;;5033479;28;20215;-62
2022/11/16 13:38:12;;;;;;;11.93;1.60;;;;;;;;;;5031682;28;20706;-62
2022/11/16 13:40:37;;;;;;;6.68;1.45;;;;;;;;;;5032719;28;20225;-62
2022/11/16 13:43:04;;;;;;;8.38;1.20;;;;;;;;;;5031109;28;20287;-62
2022/11/16 13:45:31;;;;;;;7.65;1.23;;;;;;;;;;5031124;28;20216;-61
2022/11/16 13:47:57;;;;;;;6.57;1.40;;;;;;;;;;5028756;28;20208;-61
2022/11/16 13:50:29;;;;;;;9.27;1.55;;;;;;;;;;5012364;28;20278;-61
2022/11/16 13:53:00;;;;;;;8.90;1.60;;;;;;;;;;5013517;28;20215;-61
2022/11/16 13:55:31;;;;;;;9.27;1.27;;;;;;;;;;5012861;28;20220;-63
2022/11/16 13:57:57;;;;;;;6.55;1.38;;;;;;;;;;5015450;28;20218;-61
2022/11/16 14:00:24;;;;;;;6.57;1.40;;;;;;;;;;5030278;28;20220;-61
2022/11/16 14:03:09;;;;;;;6.50;1.27;;;;;;;;;;5032795;28;20707;-61
2022/11/16 14:05:36;;;;;;;6.03;1.50;;;;;;;;;;5031895;28;20216;-60
2022/11/16 14:08:28;;;;;;;7.22;1.77;;;;;;;;;;5031156;28;20211;-61
2022/11/16 14:10:54;;;;;;;6.93;1.45;;;;;;;;;;5032856;28;20212;-61
2022/11/16 14:13:25;;;;;;;8.30;1.30;;;;;;;;;;5031285;28;20238;-61
2022/11/16 14:16:06;;;;;;;7.65;2.05;;;;;;;;;;5032190;28;20243;-61
2022/11/16 14:18:35;;;;;;;7.55;1.35;;;;;;;;;;5031149;28;20212;-60
2022/11/16 14:21:03;;;;;;;7.50;1.23;;;;;;;;;;5032288;28;20208;-61
2022/11/16 14:23:44;;;;;;;8.45;1.58;;;;;;;;;;5032374;28;20298;-61
2022/11/16 14:26:15;;;;;;;3.75;1.05;;;;;;;;;;5030125;28;20214;-61
2022/11/16 14:28:44;;;;;;;7.18;1.23;;;;;;;;;;5032476;28;20219;-60
2022/11/16 14:31:15;;;;;;;5.72;1.50;;;;;;;;;;5031721;28;20581;-61
2022/11/16 14:33:40;;;;;;;7.40;1.50;;;;;;;;;;5031766;28;20219;-61
2022/11/16 14:36:06;;;;;;;7.85;1.17;;;;;;;;;;5030740;28;20298;-61
2022/11/16 14:38:33;;;;;;;6.07;1.30;;;;;;;;;;5032367;28;20224;-61
2022/11/16 14:40:58;;;;;;;5.93;1.15;;;;;;;;;;5030375;28;20203;-60
2022/11/16 14:43:26;;;;;;;7.40;1.38;;;;;;;;;;5013987;28;20218;-61
2022/11/16 14:45:53;;;;;;;6.03;1.40;;;;;;;;;;5030434;28;20222;-61
2022/11/16 14:48:20;;;;;;;10.18;1.40;;;;;;;;;;5029292;28;20234;-61
2022/11/16 14:50:56;;;;;;;8.23;1.65;;;;;;;;;;5012790;28;20232;-61
2022/11/16 14:53:21;;;;;;;6.25;1.17;;;;;;;;;;5012234;28;20323;-61
2022/11/16 14:55:46;;;;;;;5.15;0.93;;;;;;;;;;5021394;28;20212;-61
2022/11/16 14:58:16;;;;;;;8.15;1.23;;;;;;;;;;5011799;28;20700;-62
2022/11/16 15:00:50;;;;;;;9.60;1.48;;;;;;;;;;5010510;28;20676;-62
2022/11/16 15:03:16;;;;;;;7.82;1.20;;;;;;;;;;5031850;28;20231;-61
2022/11/16 15:05:41;;;;;;;7.45;1.30;;;;;;;;;;5044609;28;20260;-61
2022/11/16 15:08:12;;;;;;;9.07;1.40;;;;;;;;;;5049705;28;20227;-62
2022/11/16 15:10:37;;;;;;;7.38;1.30;;;;;;;;;;5051066;28;20257;-61
2022/11/16 15:13:02;;;;;;;6.28;1.15;;;;;;;;;;5050054;28;20254;-62
2022/11/16 15:15:28;;;;;;;7.78;1.45;;;;;;;;;;5042803;28;20250;-62
2022/11/16 15:17:57;;;;;;;6.20;1.10;;;;;;;;;;5031266;28;20227;-61
2022/11/16 15:20:23;;;;;;;8.27;1.35;;;;;;;;;;5031487;28;20728;-61
2022/11/16 15:22:50;;;;;;;9.70;3.15;;;;;;;;;;5030051;28;20204;-61
2022/11/16 15:25:23;;;;;;;9.60;2.95;;;;;;;;;;5031653;28;20234;-61
2022/11/16 15:27:48;;;;;;;6.88;1.85;;;;;;;;;;5011727;28;20227;-62